Nautilus — OUYX2 — position and weather

sailwx.info

Track history (hours):
 
Tides and Currents Weather Stations Pressure Air Temp Water Temp Dewpoint Dewpoint Depression Visibility Wind Speed Wind Dir Waves Ship Positions

Nautilus

Last reported at 2015-Apr-21 11:34 UTC. Time now 2015-Apr-21 11:39 UTC.
Position N 58°21' E 011°25'.

Length 120 m; draft 5 m.

Type: Ship. MMSI: 219425000.

Date/timePositionNaut miles runAvg speedWind from/ knotsBaromVisibWave heightAir tempDewpointWater temp
2015-Apr-21 11:34N 58°21' E 011°25'1 1.4
2015-Apr-21 10:31N 58°20' E 011°23'0 0.1
2015-Apr-21 09:28N 58°20' E 011°23'0 0.1
2015-Apr-21 08:31N 58°20' E 011°23'0 0.0
2015-Apr-21 07:31N 58°20' E 011°23'0 0.0
2015-Apr-21 06:31N 58°20' E 011°23'6 6.5
2015-Apr-21 05:33N 58°16' E 011°14'1212.5
2015-Apr-21 04:33N 58°03' E 011°16'1312.9
2015-Apr-21 03:33N 57°51' E 011°21'1313.2
2015-Apr-21 02:33N 57°39' E 011°31'1010.3
2015-Apr-21 01:34N 57°41' E 011°50'1 1.2
2015-Apr-21 00:31N 57°41' E 011°52'0 0.0
2015-Apr-20 23:31N 57°41' E 011°52'0 0.0
2015-Apr-20 22:31N 57°41' E 011°52'0 0.0
2015-Apr-20 21:31N 57°41' E 011°52'0 0.0
2015-Apr-20 20:31N 57°41' E 011°52'0 0.0
2015-Apr-20 19:31N 57°41' E 011°52'0 0.0
2015-Apr-20 18:31N 57°41' E 011°52'0 0.0
2015-Apr-20 17:31N 57°41' E 011°52'0 0.0
2015-Apr-20 16:31N 57°41' E 011°52'0 0.0
2015-Apr-20 15:28N 57°41' E 011°52'0 0.0
2015-Apr-20 14:31N 57°41' E 011°52'0 0.0
2015-Apr-20 13:28N 57°41' E 011°52'0 0.0
2015-Apr-20 12:31N 57°41' E 011°52'0 0.0
2015-Apr-20 11:31N 57°41' E 011°52'0 0.0
2015-Apr-20 10:31N 57°41' E 011°52'5 5.1
2015-Apr-20 09:33N 57°39' E 011°44'8 8.1
2015-Apr-20 08:33N 57°42' E 011°30'1312.7
2015-Apr-20 07:33N 57°53' E 011°20'1313.3
2015-Apr-20 06:33N 58°07' E 011°15'1212.1
2015-Apr-20 05:33N 58°18' E 011°20'4 4.3
2015-Apr-20 04:32N 58°21' E 011°26'0 0.0
2015-Apr-20 03:32N 58°21' E 011°26'0 0.0
2015-Apr-20 02:32N 58°21' E 011°26'0 0.0
2015-Apr-20 01:14N 58°21' E 011°26'0 0.0
2015-Apr-20 00:32N 58°21' E 011°26'0 0.0
2015-Apr-19 23:32N 58°21' E 011°26'0 0.0
2015-Apr-19 22:32N 58°21' E 011°26'0 0.0
2015-Apr-19 21:29N 58°21' E 011°26'0 0.0
2015-Apr-19 20:32N 58°21' E 011°26'0 0.0
2015-Apr-19 19:32N 58°21' E 011°26'0 0.0
2015-Apr-19 18:32N 58°21' E 011°26'0 0.0
2015-Apr-19 17:32N 58°21' E 011°26'7 7.6
2015-Apr-19 16:33N 58°16' E 011°16'1313.4
2015-Apr-19 15:33N 58°03' E 011°16'1313.4
2015-Apr-19 14:33N 57°50' E 011°20'1413.9
2015-Apr-19 13:34N 57°36' E 011°24'1414.3
2015-Apr-19 12:34N 57°24' E 011°40'1514.9
2015-Apr-19 11:34N 57°12' E 011°54'1515.2
2015-Apr-19 10:34N 56°57' E 012°03'1515.0
2015-Apr-19 09:34N 56°43' E 012°11'1514.6
2015-Apr-19 08:34N 56°29' E 012°18'1514.7
2015-Apr-19 07:33N 56°15' E 012°27'1515.5
2015-Apr-19 06:34N 56°01' E 012°40'1515.1
2015-Apr-19 05:33N 55°46' E 012°42'1515.1
2015-Apr-19 04:33N 55°31' E 012°42'1413.7
2015-Apr-19 03:34N 55°18' E 012°44'1514.6
2015-Apr-19 02:33N 55°15' E 013°09'1514.9
2015-Apr-19 01:33N 55°15' E 013°35'1714.7
2015-Apr-19 00:26N 55°14' E 014°04'1213.2
2015-Apr-18 23:33N 55°19' E 014°23'14813.5
2015-Apr-18 12:34N 57°10' E 017°17'1413.8
2015-Apr-18 11:33N 57°24' E 017°18'1514.8
2015-Apr-18 10:34N 57°37' E 017°04'1411.9
2015-Apr-18 09:23N 57°44' E 016°41'1 0.1
2015-Apr-17 17:34N 57°44' E 016°44'1010.0
2015-Apr-17 16:33N 57°39' E 017°01'1212.1
2015-Apr-17 15:33N 57°30' E 017°13'1212.0
2015-Apr-17 14:34N 57°18' E 017°22'1212.3
2015-Apr-17 13:33N 57°06' E 017°18'14711.2
2015-Apr-17 00:23N 55°15' E 014°25'911.0
2015-Apr-16 23:31N 55°11' E 014°10'2712.2
2015-Apr-16 21:17N 55°12' E 013°22'912.3
2015-Apr-16 20:33N 55°12' E 013°07'1212.2
2015-Apr-16 19:33N 55°16' E 012°47'10 9.7
2015-Apr-16 18:33N 55°25' E 012°40'1010.5
2015-Apr-16 17:34N 55°35' E 012°42'1111.3
2015-Apr-16 16:33N 55°47' E 012°42'1212.2
2015-Apr-16 15:33N 55°59' E 012°40'1313.2
2015-Apr-16 14:33N 56°10' E 012°27'1313.0
2015-Apr-16 13:33N 56°22' E 012°20'1513.0
2015-Apr-16 12:26N 56°36' E 012°13'1112.6
2015-Apr-16 11:33N 56°47' E 012°07'1212.4
2015-Apr-16 10:33N 56°59' E 012°02'1212.4
2015-Apr-16 09:33N 57°11' E 011°54'1312.6
2015-Apr-16 08:33N 57°21' E 011°43'1312.6
2015-Apr-16 07:33N 57°32' E 011°29'1312.6
2015-Apr-16 06:33N 57°44' E 011°22'1312.8
2015-Apr-16 05:33N 57°56' E 011°18'1211.5
2015-Apr-16 04:33N 58°08' E 011°15'1010.1
2015-Apr-16 03:33N 58°17' E 011°18'6 0.3
2015-Apr-15 10:33N 58°21' E 011°26'8 7.7
2015-Apr-15 09:34N 58°16' E 011°15'1313.1
2015-Apr-15 08:34N 58°03' E 011°16'1413.6
2015-Apr-15 07:34N 57°50' E 011°22'1413.8
2015-Apr-15 06:33N 57°38' E 011°34'1110.6
2015-Apr-15 05:33N 57°41' E 011°52'0 0.3
2015-Apr-15 04:23N 57°41' E 011°53'0 0.0
2015-Apr-15 03:32N 57°41' E 011°53'0 0.0
2015-Apr-15 02:29N 57°41' E 011°53'0 0.0
2015-Apr-15 01:29N 57°41' E 011°53'0 0.0
2015-Apr-15 00:29N 57°41' E 011°53'0 0.0
2015-Apr-14 23:32N 57°41' E 011°53'0 0.0
2015-Apr-14 22:32N 57°41' E 011°53'0 0.0
2015-Apr-14 21:32N 57°41' E 011°53'0 0.0
2015-Apr-14 20:32N 57°41' E 011°53'0 0.0
2015-Apr-14 19:32N 57°41' E 011°53'0 0.0
2015-Apr-14 18:32N 57°41' E 011°53'0 0.0
2015-Apr-14 17:32N 57°41' E 011°53'0 0.0
2015-Apr-14 16:32N 57°41' E 011°53'0 0.0
2015-Apr-14 15:32N 57°41' E 011°53'0 0.0
2015-Apr-14 14:32N 57°41' E 011°53'0 0.0
2015-Apr-14 13:32N 57°41' E 011°53'0 0.0
2015-Apr-14 12:32N 57°41' E 011°53'0 0.0
2015-Apr-14 11:32N 57°41' E 011°53'0 0.0
2015-Apr-14 10:32N 57°41' E 011°53'0 0.0
2015-Apr-14 09:32N 57°41' E 011°53'0 0.0
2015-Apr-14 08:32N 57°41' E 011°53'0 0.0
2015-Apr-14 07:32N 57°41' E 011°53'0 0.0
2015-Apr-14 06:32N 57°41' E 011°53'3 3.2
2015-Apr-14 05:33N 57°41' E 011°47'3 3.2
2015-Apr-14 04:32N 57°41' E 011°41'0 0.0
2015-Apr-14 03:29N 57°41' E 011°41'0 0.0
2015-Apr-14 02:26N 57°40' E 011°41'0 0.0
2015-Apr-14 01:29N 57°41' E 011°41'0 0.0
2015-Apr-14 00:32N 57°40' E 011°41'0 0.0
2015-Apr-13 23:32N 57°40' E 011°41'0 0.0
2015-Apr-13 22:33N 57°41' E 011°41'0 0.0
2015-Apr-13 21:33N 57°41' E 011°41'0 0.0
2015-Apr-13 20:33N 57°41' E 011°41'0 0.0
2015-Apr-13 19:33N 57°41' E 011°41'0 0.0
2015-Apr-13 18:33N 57°40' E 011°41'0 0.0
2015-Apr-13 17:33N 57°40' E 011°41'0 0.0
2015-Apr-13 16:33N 57°41' E 011°41'0 0.0
2015-Apr-13 15:33N 57°41' E 011°41'0 0.0
2015-Apr-13 14:33N 57°41' E 011°41'0 0.0
2015-Apr-13 13:33N 57°41' E 011°41'0 0.0
2015-Apr-13 12:33N 57°41' E 011°41'0 0.0
2015-Apr-13 11:33N 57°40' E 011°41'0 0.0
2015-Apr-13 10:33N 57°40' E 011°41'0 0.0
2015-Apr-13 09:33N 57°40' E 011°41'0 0.0
2015-Apr-13 08:33N 57°40' E 011°41'0 0.0
2015-Apr-13 07:33N 57°41' E 011°41'0 0.0
2015-Apr-13 06:33N 57°41' E 011°41'0 0.0
2015-Apr-13 05:33N 57°41' E 011°41'0 0.2
2015-Apr-13 04:33N 57°40' E 011°41'5 5.0
2015-Apr-13 03:33N 57°39' E 011°32'1110.8
2015-Apr-13 02:33N 57°49' E 011°23'1110.7
2015-Apr-13 01:33N 57°59' E 011°18'9 9.5
2015-Apr-13 00:33N 58°09' E 011°14'8 8.0
2015-Apr-12 23:33N 58°16' E 011°16'7 7.3
2015-Apr-12 22:33N 58°21' E 011°26'0 0.0
2015-Apr-12 11:34N 58°21' E 011°26'3 3.0
2015-Apr-12 10:32N 58°20' E 011°21'0 0.0
2015-Apr-12 09:32N 58°20' E 011°21'0 0.0
2015-Apr-12 08:32N 58°20' E 011°21'0 0.0
2015-Apr-12 07:29N 58°20' E 011°21'0 0.0
2015-Apr-12 06:32N 58°20' E 011°21'0 0.0
2015-Apr-12 05:32N 58°20' E 011°21'0 0.0
2015-Apr-12 04:32N 58°20' E 011°21'0 0.0
2015-Apr-12 03:32N 58°20' E 011°21'0 0.0
2015-Apr-12 02:32N 58°20' E 011°21'0 0.0
2015-Apr-12 01:32N 58°20' E 011°21'0 0.1
2015-Apr-12 00:33N 58°20' E 011°21'0 0.1
2015-Apr-11 23:33N 58°20' E 011°21'0 0.0
2015-Apr-11 22:33N 58°20' E 011°21'0 0.0
2015-Apr-11 21:33N 58°20' E 011°21'0 0.0
2015-Apr-11 20:33N 58°20' E 011°21'0 0.0
2015-Apr-11 19:33N 58°20' E 011°21'0 0.1
2015-Apr-11 18:33N 58°20' E 011°21'0 0.0
2015-Apr-11 17:33N 58°20' E 011°21'0 0.0
2015-Apr-11 16:33N 58°20' E 011°21'0 0.0
2015-Apr-11 15:33N 58°20' E 011°21'0 0.0
2015-Apr-11 14:33N 58°20' E 011°21'0 0.0
2015-Apr-11 13:33N 58°20' E 011°21'0 0.0
2015-Apr-11 12:33N 58°20' E 011°21'  
Track history (hours):
 
Tides and Currents Weather Stations Pressure Air Temp Water Temp Dewpoint Dewpoint Depression Visibility Wind Speed Wind Dir Waves Ship Positions

Nautilus

Last reported at 2015-Apr-21 11:34 UTC. Time now 2015-Apr-21 11:39 UTC.
Position N 58°21' E 011°25'.

Length 120 m; draft 5 m.

Type: Ship. MMSI: 219425000.

Date/timePositionNaut miles runAvg speedWind from/ knotsBaromVisibWave heightAir tempDewpointWater temp
2015-Apr-21 11:34N 58°21' E 011°25'1 1.4
2015-Apr-21 10:31N 58°20' E 011°23'0 0.1
2015-Apr-21 09:28N 58°20' E 011°23'0 0.1
2015-Apr-21 08:31N 58°20' E 011°23'0 0.0
2015-Apr-21 07:31N 58°20' E 011°23'0 0.0
2015-Apr-21 06:31N 58°20' E 011°23'6 6.5
2015-Apr-21 05:33N 58°16' E 011°14'1212.5
2015-Apr-21 04:33N 58°03' E 011°16'1312.9
2015-Apr-21 03:33N 57°51' E 011°21'1313.2
2015-Apr-21 02:33N 57°39' E 011°31'1010.3
2015-Apr-21 01:34N 57°41' E 011°50'1 1.2
2015-Apr-21 00:31N 57°41' E 011°52'0 0.0
2015-Apr-20 23:31N 57°41' E 011°52'0 0.0
2015-Apr-20 22:31N 57°41' E 011°52'0 0.0
2015-Apr-20 21:31N 57°41' E 011°52'0 0.0
2015-Apr-20 20:31N 57°41' E 011°52'0 0.0
2015-Apr-20 19:31N 57°41' E 011°52'0 0.0
2015-Apr-20 18:31N 57°41' E 011°52'0 0.0
2015-Apr-20 17:31N 57°41' E 011°52'0 0.0
2015-Apr-20 16:31N 57°41' E 011°52'0 0.0
2015-Apr-20 15:28N 57°41' E 011°52'0 0.0
2015-Apr-20 14:31N 57°41' E 011°52'0 0.0
2015-Apr-20 13:28N 57°41' E 011°52'0 0.0
2015-Apr-20 12:31N 57°41' E 011°52'0 0.0
2015-Apr-20 11:31N 57°41' E 011°52'0 0.0
2015-Apr-20 10:31N 57°41' E 011°52'5 5.1
2015-Apr-20 09:33N 57°39' E 011°44'8 8.1
2015-Apr-20 08:33N 57°42' E 011°30'1312.7
2015-Apr-20 07:33N 57°53' E 011°20'1313.3
2015-Apr-20 06:33N 58°07' E 011°15'1212.1
2015-Apr-20 05:33N 58°18' E 011°20'4 4.3
2015-Apr-20 04:32N 58°21' E 011°26'0 0.0
2015-Apr-20 03:32N 58°21' E 011°26'0 0.0
2015-Apr-20 02:32N 58°21' E 011°26'0 0.0
2015-Apr-20 01:14N 58°21' E 011°26'0 0.0
2015-Apr-20 00:32N 58°21' E 011°26'0 0.0
2015-Apr-19 23:32N 58°21' E 011°26'0 0.0
2015-Apr-19 22:32N 58°21' E 011°26'0 0.0
2015-Apr-19 21:29N 58°21' E 011°26'0 0.0
2015-Apr-19 20:32N 58°21' E 011°26'0 0.0
2015-Apr-19 19:32N 58°21' E 011°26'0 0.0
2015-Apr-19 18:32N 58°21' E 011°26'0 0.0
2015-Apr-19 17:32N 58°21' E 011°26'7 7.6
2015-Apr-19 16:33N 58°16' E 011°16'1313.4
2015-Apr-19 15:33N 58°03' E 011°16'1313.4
2015-Apr-19 14:33N 57°50' E 011°20'1413.9
2015-Apr-19 13:34N 57°36' E 011°24'1414.3
2015-Apr-19 12:34N 57°24' E 011°40'1514.9
2015-Apr-19 11:34N 57°12' E 011°54'1515.2
2015-Apr-19 10:34N 56°57' E 012°03'1515.0
2015-Apr-19 09:34N 56°43' E 012°11'1514.6
2015-Apr-19 08:34N 56°29' E 012°18'1514.7
2015-Apr-19 07:33N 56°15' E 012°27'1515.5
2015-Apr-19 06:34N 56°01' E 012°40'1515.1
2015-Apr-19 05:33N 55°46' E 012°42'1515.1
2015-Apr-19 04:33N 55°31' E 012°42'1413.7
2015-Apr-19 03:34N 55°18' E 012°44'1514.6
2015-Apr-19 02:33N 55°15' E 013°09'1514.9
2015-Apr-19 01:33N 55°15' E 013°35'1714.7
2015-Apr-19 00:26N 55°14' E 014°04'1213.2
2015-Apr-18 23:33N 55°19' E 014°23'14813.5
2015-Apr-18 12:34N 57°10' E 017°17'1413.8
2015-Apr-18 11:33N 57°24' E 017°18'1514.8
2015-Apr-18 10:34N 57°37' E 017°04'1411.9
2015-Apr-18 09:23N 57°44' E 016°41'1 0.1
2015-Apr-17 17:34N 57°44' E 016°44'1010.0
2015-Apr-17 16:33N 57°39' E 017°01'1212.1
2015-Apr-17 15:33N 57°30' E 017°13'1212.0
2015-Apr-17 14:34N 57°18' E 017°22'1212.3
2015-Apr-17 13:33N 57°06' E 017°18'14711.2
2015-Apr-17 00:23N 55°15' E 014°25'911.0
2015-Apr-16 23:31N 55°11' E 014°10'2712.2
2015-Apr-16 21:17N 55°12' E 013°22'912.3
2015-Apr-16 20:33N 55°12' E 013°07'1212.2
2015-Apr-16 19:33N 55°16' E 012°47'10 9.7
2015-Apr-16 18:33N 55°25' E 012°40'1010.5
2015-Apr-16 17:34N 55°35' E 012°42'1111.3
2015-Apr-16 16:33N 55°47' E 012°42'1212.2
2015-Apr-16 15:33N 55°59' E 012°40'1313.2
2015-Apr-16 14:33N 56°10' E 012°27'1313.0
2015-Apr-16 13:33N 56°22' E 012°20'1513.0
2015-Apr-16 12:26N 56°36' E 012°13'1112.6
2015-Apr-16 11:33N 56°47' E 012°07'1212.4
2015-Apr-16 10:33N 56°59' E 012°02'1212.4
2015-Apr-16 09:33N 57°11' E 011°54'1312.6
2015-Apr-16 08:33N 57°21' E 011°43'1312.6
2015-Apr-16 07:33N 57°32' E 011°29'1312.6
2015-Apr-16 06:33N 57°44' E 011°22'1312.8
2015-Apr-16 05:33N 57°56' E 011°18'1211.5
2015-Apr-16 04:33N 58°08' E 011°15'1010.1
2015-Apr-16 03:33N 58°17' E 011°18'6 0.3
2015-Apr-15 10:33N 58°21' E 011°26'8 7.7
2015-Apr-15 09:34N 58°16' E 011°15'1313.1
2015-Apr-15 08:34N 58°03' E 011°16'1413.6
2015-Apr-15 07:34N 57°50' E 011°22'1413.8
2015-Apr-15 06:33N 57°38' E 011°34'1110.6
2015-Apr-15 05:33N 57°41' E 011°52'0 0.3
2015-Apr-15 04:23N 57°41' E 011°53'0 0.0
2015-Apr-15 03:32N 57°41' E 011°53'0 0.0
2015-Apr-15 02:29N 57°41' E 011°53'0 0.0
2015-Apr-15 01:29N 57°41' E 011°53'0 0.0
2015-Apr-15 00:29N 57°41' E 011°53'0 0.0
2015-Apr-14 23:32N 57°41' E 011°53'0 0.0
2015-Apr-14 22:32N 57°41' E 011°53'0 0.0
2015-Apr-14 21:32N 57°41' E 011°53'0 0.0
2015-Apr-14 20:32N 57°41' E 011°53'0 0.0
2015-Apr-14 19:32N 57°41' E 011°53'0 0.0
2015-Apr-14 18:32N 57°41' E 011°53'0 0.0
2015-Apr-14 17:32N 57°41' E 011°53'0 0.0
2015-Apr-14 16:32N 57°41' E 011°53'0 0.0
2015-Apr-14 15:32N 57°41' E 011°53'0 0.0
2015-Apr-14 14:32N 57°41' E 011°53'0 0.0
2015-Apr-14 13:32N 57°41' E 011°53'0 0.0
2015-Apr-14 12:32N 57°41' E 011°53'0 0.0
2015-Apr-14 11:32N 57°41' E 011°53'0 0.0
2015-Apr-14 10:32N 57°41' E 011°53'0 0.0
2015-Apr-14 09:32N 57°41' E 011°53'0 0.0
2015-Apr-14 08:32N 57°41' E 011°53'0 0.0
2015-Apr-14 07:32N 57°41' E 011°53'0 0.0
2015-Apr-14 06:32N 57°41' E 011°53'3 3.2
2015-Apr-14 05:33N 57°41' E 011°47'3 3.2
2015-Apr-14 04:32N 57°41' E 011°41'0 0.0
2015-Apr-14 03:29N 57°41' E 011°41'0 0.0
2015-Apr-14 02:26N 57°40' E 011°41'0 0.0
2015-Apr-14 01:29N 57°41' E 011°41'0 0.0
2015-Apr-14 00:32N 57°40' E 011°41'0 0.0
2015-Apr-13 23:32N 57°40' E 011°41'0 0.0
2015-Apr-13 22:33N 57°41' E 011°41'0 0.0
2015-Apr-13 21:33N 57°41' E 011°41'0 0.0
2015-Apr-13 20:33N 57°41' E 011°41'0 0.0
2015-Apr-13 19:33N 57°41' E 011°41'0 0.0
2015-Apr-13 18:33N 57°40' E 011°41'0 0.0
2015-Apr-13 17:33N 57°40' E 011°41'0 0.0
2015-Apr-13 16:33N 57°41' E 011°41'0 0.0
2015-Apr-13 15:33N 57°41' E 011°41'0 0.0
2015-Apr-13 14:33N 57°41' E 011°41'0 0.0
2015-Apr-13 13:33N 57°41' E 011°41'0 0.0
2015-Apr-13 12:33N 57°41' E 011°41'0 0.0
2015-Apr-13 11:33N 57°40' E 011°41'0 0.0
2015-Apr-13 10:33N 57°40' E 011°41'0 0.0
2015-Apr-13 09:33N 57°40' E 011°41'0 0.0
2015-Apr-13 08:33N 57°40' E 011°41'0 0.0
2015-Apr-13 07:33N 57°41' E 011°41'0 0.0
2015-Apr-13 06:33N 57°41' E 011°41'0 0.0
2015-Apr-13 05:33N 57°41' E 011°41'0 0.2
2015-Apr-13 04:33N 57°40' E 011°41'5 5.0
2015-Apr-13 03:33N 57°39' E 011°32'1110.8
2015-Apr-13 02:33N 57°49' E 011°23'1110.7
2015-Apr-13 01:33N 57°59' E 011°18'9 9.5
2015-Apr-13 00:33N 58°09' E 011°14'8 8.0
2015-Apr-12 23:33N 58°16' E 011°16'7 7.3
2015-Apr-12 22:33N 58°21' E 011°26'0 0.0
2015-Apr-12 11:34N 58°21' E 011°26'3 3.0
2015-Apr-12 10:32N 58°20' E 011°21'0 0.0
2015-Apr-12 09:32N 58°20' E 011°21'0 0.0
2015-Apr-12 08:32N 58°20' E 011°21'0 0.0
2015-Apr-12 07:29N 58°20' E 011°21'0 0.0
2015-Apr-12 06:32N 58°20' E 011°21'0 0.0
2015-Apr-12 05:32N 58°20' E 011°21'0 0.0
2015-Apr-12 04:32N 58°20' E 011°21'0 0.0
2015-Apr-12 03:32N 58°20' E 011°21'0 0.0
2015-Apr-12 02:32N 58°20' E 011°21'0 0.0
2015-Apr-12 01:32N 58°20' E 011°21'0 0.1
2015-Apr-12 00:33N 58°20' E 011°21'0 0.1
2015-Apr-11 23:33N 58°20' E 011°21'0 0.0
2015-Apr-11 22:33N 58°20' E 011°21'0 0.0
2015-Apr-11 21:33N 58°20' E 011°21'0 0.0
2015-Apr-11 20:33N 58°20' E 011°21'0 0.0
2015-Apr-11 19:33N 58°20' E 011°21'0 0.1
2015-Apr-11 18:33N 58°20' E 011°21'0 0.0
2015-Apr-11 17:33N 58°20' E 011°21'0 0.0
2015-Apr-11 16:33N 58°20' E 011°21'0 0.0
2015-Apr-11 15:33N 58°20' E 011°21'0 0.0
2015-Apr-11 14:33N 58°20' E 011°21'0 0.0
2015-Apr-11 13:33N 58°20' E 011°21'0 0.0
2015-Apr-11 12:33N 58°20' E 011°21'  

Dump ship's entire track history